シアトル・タコマ国際空港の過去48時間の天気

シアトル・タコマ国際空港 (Seattle, Seattle-Tacoma International Airport)

現在時刻: 5/25 18:17 PDT (5/26 01:17 UTC) 以下の時間は現地時間です。

過去48時間のMETAR気象情報
時間 風向 風速(m/s) 視程 気温(℃) 湿度(%) 気圧(hPa) 天気現象
25 17:53 西南西 4 10km以上 18.9 50 1015.9
25 16:53 西 4 10km以上 19.4 49 1016.4
25 15:53 西 4 10km以上 19.4 51 1016.7
25 14:53 西南西 5 10km以上 18.9 52 1017
25 13:53 西南西 6 10km以上 18.9 56 1017.2
25 12:53 西南西 5 10km以上 17.2 65 1017.4
25 11:53 南南西 6 10km以上 17.2 65 1017.3
25 10:53 南南西 7 10km以上 15.6 72 1017.2
25 10:00 西南西 7 10km以上 15 78 1017
25 09:53 南西 6 10km以上 14.4 81 1017
25 08:53 5 10km以上 12.8 89 1016.8
25 07:53 3 10km以上 12.2 90 1016.7
25 07:41 4 10km以上 11.7 93 1016
25 06:53 南南東 3 10km以上 11.7 93 1016.2
25 05:53 5 10km以上 11.1 93 1015.7
25 04:53 3 3200m 10.6 96 1015.7
25 03:53 南南西 2 3200m 10.6 96 1015.9
25 02:53 南西 3 3200m 10.6 96 1016.2 弱い雨 もや
25 02:44 南南西 3 1600m 10.6 96 1016 弱い雨 もや
25 02:21 南南西 2 1600m 10.6 96 1015 弱い雨 もや
25 01:58 南西 2 1600m 10.6 96 1015 弱い雨 もや
25 00:53 南南西 3 10km以上 11.1 89 1016
24 23:53 南西 2 10km以上 11.7 80 1016.4
24 22:53 西北西 2 10km以上 11.7 77 1016.6
24 21:53 西北西 2 10km以上 12.8 74 1016.7
24 20:53 南南西 2 10km以上 12.8 74 1016.5
24 19:53 3 10km以上 13.3 69 1017
24 18:53 3 10km以上 13.3 75 1017.6 弱い雨
24 17:53 南南東 3 10km以上 13.3 72 1018.1
24 16:53 西 2 10km以上 13.9 74 1018.4
24 15:53 西 3 10km以上 14.4 67 1018.2
24 14:53 南西 3 10km以上 14.4 67 1018.2
24 13:53 南南西 3 10km以上 14.4 70 1018.9
24 12:53 南南西 4 10km以上 13.9 72 1019.7
24 12:00 南西 4 10km以上 12.8 74 1020
24 11:25 南西 3 10km以上 12.8 74 1020
24 10:53 南西 4 10km以上 12.8 74 1020.4
24 10:01 西 3 10km以上 12.2 77 1020
24 09:53 南西 4 10km以上 11.7 77 1020.5
24 08:53 南西 3 10km以上 11.7 80 1020.1
24 07:53 不定 2 10km以上 11.1 83 1020.3
24 07:35 西南西 2 10km以上 10.6 86 1020
24 07:00 南西 2 10km以上 10.6 86 1020
24 06:53 南南西 2 10km以上 10.6 83 1020.4
24 05:53 西 2 10km以上 10.6 83 1021.1
24 04:53 西 3 10km以上 10.6 83 1021.1
24 03:53 西 2 10km以上 11.1 80 1021.4
24 02:53 南西 2 10km以上 11.1 80 1021.6
24 02:21 南西 2 10km以上 11.1 83 1021
24 01:53 南西 2 10km以上 11.1 83 1021.7
24 00:53 南西 3 10km以上 11.1 83 1021.9
23 23:53 南南西 3 10km以上 11.7 83 1021.9
23 22:53 南南西 2 10km以上 12.8 74 1022.1
23 21:53 北北東 3 10km以上 15.6 57 1022.1
23 20:53 北西 3 10km以上 15 67 1022
23 19:53 北西 3 10km以上 16.1 60 1021.7
23 18:53 西 4 10km以上 17.2 56 1021.6
KSEA 260053Z 25007KT 10SM FEW040 BKN250 19/08 A2999 RMK AO2 SLP159 T01890083
KSEA 252353Z 26007KT 10SM FEW040 BKN250 19/08 A3000 RMK AO2 SLP164 T01940083 10200 20156 58008
KSEA 252253Z 26008KT 10SM SCT040 SCT250 19/09 A3001 RMK AO2 SLP167 T01940089
KSEA 252153Z 25009KT 10SM SCT040 SCT250 19/09 A3002 RMK AO2 SLP170 T01890089
KSEA 252053Z 25011KT 10SM FEW040 SCT140 BKN250 19/10 A3002 RMK AO2 SLP172 T01890100 50001
KSEA 251953Z 25009G15KT 10SM FEW035 SCT140 BKN250 17/11 A3003 RMK AO2 SLP174 T01720106
KSEA 251853Z 21011G18KT 10SM SCT035 BKN140 BKN210 17/11 A3003 RMK AO2 SLP173 T01720106
KSEA 251753Z 21013KT 10SM SCT032 BKN140 BKN230 16/11 A3002 RMK AO2 SLP172 T01560106 10156 20106 53005
KSEA 251700Z 24014G19KT 10SM FEW015 SCT026 BKN140 BKN250 15/11 A3002 RMK AO2 T01500111
KSEA 251653Z 22012G19KT 10SM FEW014 BKN026 BKN140 BKN250 14/11 A3001 RMK AO2 SLP170 T01440111
KSEA 251553Z 19010KT 10SM FEW007 BKN025 OVC080 13/11 A3001 RMK AO2 SLP168 T01280111
KSEA 251453Z 18006KT 10SM SCT007 BKN020 OVC030 12/11 A3000 RMK AO2 SLP167 T01220106 53010
KSEA 251441Z 17007KT 10SM SCT007 BKN020 OVC030 12/11 A3000 RMK AO2 T01170106
KSEA 251353Z 16006KT 10SM BKN007 OVC023 12/11 A2999 RMK AO2 SLP162 T01170106
KSEA 251253Z 18009KT 10SM FEW008 OVC023 11/10 A2998 RMK AO2 SLP157 T01110100
KSEA 251153Z 17006KT 2SM SCT005 OVC019 11/10 A2998 RMK AO2 SFC VIS 10 SLP157 60002 70002 T01060100 10117 20106 55005
KSEA 251053Z 21004KT 2SM OVC005 11/10 A2998 RMK AO2 SFC VIS 8 RAE09 SLP159 P0000 T01060100
KSEA 250953Z 23006KT 2SM -RA BR OVC004 11/10 A2999 RMK AO2 SFC VIS 3 SLP162 P0001 T01060100
KSEA 250944Z 21005KT 1SM R16L/P6000FT -RA BR OVC004 11/10 A2999 RMK AO2 SFC VIS 3 P0001 T01060100
KSEA 250921Z 20004KT 1SM R16L/P6000FT -RA BR FEW005 BKN009 OVC012 11/10 A2998 RMK AO2 SFC VIS 2 1/2 P0001 T01060100
KSEA 250858Z 23003KT 1SM R16L/P6000FT -RA BR BKN003 OVC014 11/10 A2998 RMK AO2 SFC VIS 2 1/2 P0000 T01060100
KSEA 250753Z 21006KT 10SM OVC015 11/09 A2999 RMK AO2 SLP160 T01110094 401500106
KSEA 250653Z 22003KT 10SM OVC030 12/08 A3000 RMK AO2 SLP164 T01170083
KSEA 250553Z 29004KT 10SM OVC042 12/08 A3000 RMK AO2 SLP166 60000 T01170078 10139 20117 56004
KSEA 250453Z 29003KT 10SM OVC042 13/08 A3001 RMK AO2 SLP167 T01280083
KSEA 250353Z 20004KT 10SM OVC050 13/08 A3000 RMK AO2 SLP165 T01280083
KSEA 250253Z 17006KT 10SM OVC050 13/08 A3001 RMK AO2 RAE43 SLP170 P0000 60000 T01330078 58014
KSEA 250153Z 17005KT 10SM -RA OVC055 13/09 A3003 RMK AO2 RAB51 SLP176 P0000 T01330089
KSEA 250053Z 16005KT 10SM OVC070 13/08 A3005 RMK AO2 SLP181 T01330083
KSEA 242353Z 26004KT 10SM OVC080 14/09 A3006 RMK AO2 RAB2254E12 SLP184 P0000 60000 T01390094 10150 20122 55005
KSEA 242253Z 27005KT 10SM FEW030 BKN075 OVC150 14/08 A3005 RMK AO2 SLP182 T01440083
KSEA 242153Z 23005KT 10SM FEW030 BKN090 OVC180 14/08 A3005 RMK AO2 SLP182 T01440083
KSEA 242053Z 21006KT 10SM SCT025 OVC100 14/09 A3007 RMK AO2 SLP189 T01440089 58015
KSEA 241953Z 20007KT 10SM SCT020 BKN110 BKN230 14/09 A3009 RMK AO2 SLP197 T01390089
KSEA 241900Z 22007KT 10SM FEW016 SCT022 OVC150 13/08 A3011 RMK AO2 T01280083
KSEA 241825Z 22006KT 10SM SCT016 BKN022 OVC150 13/08 A3012 RMK AO2 T01280083
KSEA 241753Z 22007KT 10SM SCT014 OVC150 13/08 A3012 RMK AO2 SLP204 T01280083 10128 20106 53002
KSEA 241701Z 26006KT 10SM SCT016 SCT023 OVC150 12/08 A3012 RMK AO2 T01220083
KSEA 241653Z 22007KT 10SM SCT016 BKN023 OVC150 12/08 A3012 RMK AO2 SLP205 T01170078
KSEA 241553Z 22006KT 10SM FEW010 BKN024 BKN040 OVC150 12/08 A3011 RMK AO2 SLP201 T01170083
KSEA 241453Z VRB04KT 10SM FEW008 BKN023 OVC040 11/08 A3011 RMK AO2 SLP203 T01110083 58009
KSEA 241435Z 25004KT 10SM FEW015 BKN023 BKN040 OVC150 11/08 A3011 RMK AO2 T01060083
KSEA 241400Z 23003KT 10SM FEW015 SCT021 BKN040 OVC150 11/08 A3011 RMK AO2 T01060083
KSEA 241353Z 21003KT 10SM FEW015 BKN021 BKN040 OVC150 11/08 A3012 RMK AO2 SLP204 T01060078
KSEA 241253Z 27003KT 10SM BKN024 OVC040 11/08 A3014 RMK AO2 SLP211 T01060078
KSEA 241153Z 28006KT 10SM OVC015 11/08 A3014 RMK AO2 SLP211 T01060078 10128 20106 58005
KSEA 241053Z 27003KT 10SM SCT013 OVC021 11/08 A3015 RMK AO2 SLP214 T01110078
KSEA 240953Z 23004KT 10SM OVC019 11/08 A3015 RMK AO2 SLP216 T01110078
KSEA 240921Z 23004KT 10SM BKN018 BKN044 OVC065 11/08 A3015 RMK AO2 T01110083
KSEA 240853Z 22004KT 10SM OVC060 11/08 A3016 RMK AO2 SLP217 T01110083 56003
KSEA 240753Z 22005KT 10SM OVC040 11/08 A3016 RMK AO2 SLP219 T01110083 401890106
KSEA 240653Z 21006KT 10SM SCT065 SCT200 12/09 A3016 RMK AO2 SLP219 T01170089
KSEA 240553Z 20004KT 10SM BKN036 OVC055 13/08 A3016 RMK AO2 SLP221 T01280083 10183 20128 50004
KSEA 240453Z 03005KT 10SM OVC035 16/07 A3016 RMK AO2 SLP221 T01560072
KSEA 240353Z 31005KT 10SM BKN033 15/09 A3016 RMK AO2 SLP220 T01500089
KSEA 240253Z 31005KT 10SM SCT050 SCT100 BKN250 16/08 A3015 RMK AO2 SLP217 T01610083 56006
KSEA 240153Z 28007KT 10SM FEW049 SCT090 BKN250 17/08 A3015 RMK AO2 SLP216 T01720083